Time;durP1;ratioP1;P1;durP2;ratioP2;P2;SDS_P1;SDS_P2;PMS_P1;PMS_P2;Temp;Humidity;BMP_temperature;BMP_pressure;BME280_temperature;BME280_humidity;BME280_pressure;Samples;Min_cycle;Max_cycle;Signal;HPM_P1;HPM_P2
2021/06/26 00:01:40;;;;;;;;;;;15.10;99.90;;;;;;5015694;28;20431;-80
2021/06/26 00:04:06;;;;;;;;;;;15.10;99.90;;;;;;5015636;28;20323;-80
2021/06/26 00:06:33;;;;;;;;;;;15.20;99.90;;;;;;5015620;28;19933;-80
2021/06/26 00:08:59;;;;;;;;;;;15.10;99.90;;;;;;5015866;28;20000;-79
2021/06/26 00:11:24;;;;;;;;;;;15.20;99.90;;;;;;5015504;28;19951;-80
2021/06/26 00:13:50;;;;;;;;;;;15.20;99.90;;;;;;5015317;28;19913;-80
2021/06/26 00:16:16;;;;;;;;;;;15.20;99.90;;;;;;5015377;28;19905;-80
2021/06/26 00:18:41;;;;;;;;;;;15.20;99.90;;;;;;5015385;28;19936;-80
2021/06/26 00:21:06;;;;;;;;;;;15.10;99.90;;;;;;5016682;28;20364;-80
2021/06/26 00:23:32;;;;;;;;;;;15.10;99.90;;;;;;5015133;28;19912;-80
2021/06/26 00:25:57;;;;;;;;;;;15.10;99.90;;;;;;5015394;28;19999;-80
2021/06/26 00:28:23;;;;;;;;;;;15.00;99.90;;;;;;5015388;28;19906;-80
2021/06/26 00:30:48;;;;;;;;;;;15.00;99.90;;;;;;5015544;28;20352;-80
2021/06/26 00:33:14;;;;;;;;;;;15.00;99.90;;;;;;5015020;28;19913;-80
2021/06/26 00:35:39;;;;;;;;;;;15.00;99.90;;;;;;5015371;28;19959;-80
2021/06/26 00:38:05;;;;;;;;;;;14.90;99.90;;;;;;5015312;28;19936;-80
2021/06/26 00:40:30;;;;;;;;;;;14.90;99.90;;;;;;5015177;28;20391;-79
2021/06/26 00:42:56;;;;;;;;;;;14.80;99.90;;;;;;5014367;28;20001;-80
2021/06/26 00:45:21;;;;;;;;;;;14.80;99.90;;;;;;5014773;28;19906;-80
2021/06/26 00:47:47;;;;;;;;;;;14.80;99.90;;;;;;5016263;28;19932;-80
2021/06/26 00:50:12;;;;;;;;;;;14.80;99.90;;;;;;5015048;28;20284;-80
2021/06/26 00:52:38;;;;;;;;;;;14.80;99.90;;;;;;5015910;28;19909;-80
2021/06/26 00:55:05;;;;;;;;;;;14.80;99.90;;;;;;5014917;28;19920;-80
2021/06/26 00:57:33;;;;;;;;;;;14.80;99.90;;;;;;5015133;28;19909;-80
2021/06/26 00:59:58;;;;;;;;;;;14.80;99.90;;;;;;5014983;28;19996;-80
2021/06/26 01:02:24;;;;;;;;;;;14.80;99.90;;;;;;5014869;28;20406;-80
2021/06/26 01:04:49;;;;;;;;;;;14.80;99.90;;;;;;5014686;28;19905;-80
2021/06/26 01:07:15;;;;;;;;;;;14.70;99.90;;;;;;5013753;28;19912;-80
2021/06/26 01:09:41;;;;;;;;;;;14.70;99.90;;;;;;5014839;28;20280;-80
2021/06/26 01:12:06;;;;;;;;;;;14.70;99.90;;;;;;5014575;28;19905;-80
2021/06/26 01:14:32;;;;;;;;;;;14.70;99.90;;;;;;5014299;28;19905;-79
2021/06/26 01:17:03;;;;;;;;;;;14.60;99.90;;;;;;5014215;28;19909;-80
2021/06/26 01:19:28;;;;;;;;;;;14.60;99.90;;;;;;5014444;28;19912;-80
2021/06/26 01:21:54;;;;;;;;;;;14.60;99.90;;;;;;5014112;28;19905;-80
2021/06/26 01:24:20;;;;;;;;;;;14.60;99.90;;;;;;5014173;28;19962;-80
2021/06/26 01:26:46;;;;;;;;;;;14.60;99.90;;;;;;5014001;28;20180;-80
2021/06/26 01:29:12;;;;;;;;;;;14.60;99.90;;;;;;5015224;28;19985;-80
2021/06/26 01:31:38;;;;;;;;;;;14.60;99.90;;;;;;5013784;28;19909;-79
2021/06/26 01:34:03;;;;;;;;;;;14.60;99.90;;;;;;5014755;28;19909;-79
2021/06/26 01:36:29;;;;;;;;;;;14.60;99.90;;;;;;5013732;28;19906;-80
2021/06/26 01:38:55;;;;;;;;;;;14.50;99.90;;;;;;5013752;28;20040;-80
2021/06/26 01:41:21;;;;;;;;;;;14.50;99.90;;;;;;5014747;28;19905;-80
2021/06/26 01:43:47;;;;;;;;;;;14.40;99.90;;;;;;5013383;28;19909;-79
2021/06/26 01:46:12;;;;;;;;;;;14.50;99.90;;;;;;5013456;28;19911;-80
2021/06/26 01:48:38;;;;;;;;;;;14.40;99.90;;;;;;5014582;28;19905;-80
2021/06/26 01:51:03;;;;;;;;;;;14.40;99.90;;;;;;5013476;28;20265;-79
2021/06/26 01:53:29;;;;;;;;;;;14.40;99.90;;;;;;5013021;28;19921;-80
2021/06/26 01:55:54;;;;;;;;;;;14.40;99.90;;;;;;5013373;28;19905;-80
2021/06/26 01:58:20;;;;;;;;;;;14.40;99.90;;;;;;5013368;28;19952;-79
2021/06/26 02:00:46;;;;;;;;;;;14.40;99.90;;;;;;5013186;28;19909;-80
2021/06/26 02:03:11;;;;;;;;;;;14.40;99.90;;;;;;5012838;28;20269;-79
2021/06/26 02:05:36;;;;;;;;;;;14.40;99.90;;;;;;5014092;28;19905;-79
2021/06/26 02:08:02;;;;;;;;;;;14.40;99.90;;;;;;5013148;28;20312;-80
2021/06/26 02:10:27;;;;;;;;;;;14.30;99.90;;;;;;5014177;28;19913;-79
2021/06/26 02:12:53;;;;;;;;;;;14.30;99.90;;;;;;5012705;28;19906;-79
2021/06/26 02:15:18;;;;;;;;;;;14.30;99.90;;;;;;5013688;28;19912;-80
2021/06/26 02:17:44;;;;;;;;;;;14.20;99.90;;;;;;5013124;28;19917;-80
2021/06/26 02:20:10;;;;;;;;;;;14.20;99.90;;;;;;5013617;28;19991;-80
2021/06/26 02:22:35;;;;;;;;;;;14.10;99.90;;;;;;5012880;28;19983;-80
2021/06/26 02:25:04;;;;;;;;;;;14.10;99.90;;;;;;5012818;28;20057;-79
2021/06/26 02:27:30;;;;;;;;;;;14.20;99.90;;;;;;5012590;28;19996;-80
2021/06/26 02:29:56;;;;;;;;;;;14.30;99.90;;;;;;5014300;28;19952;-79
2021/06/26 02:32:21;;;;;;;;;;;14.30;99.90;;;;;;5012159;28;19920;-80
2021/06/26 02:34:47;;;;;;;;;;;14.40;99.90;;;;;;5012478;28;20344;-79
2021/06/26 02:37:12;;;;;;;;;;;14.40;99.90;;;;;;5012621;28;19909;-80
2021/06/26 02:39:37;;;;;;;;;;;14.30;99.90;;;;;;5013707;28;20360;-80
2021/06/26 02:42:03;;;;;;;;;;;14.30;99.90;;;;;;5012356;28;19944;-80
2021/06/26 02:44:29;;;;;;;;;;;14.40;99.90;;;;;;5012268;28;19992;-79
2021/06/26 02:46:54;;;;;;;;;;;14.40;99.90;;;;;;5012374;28;20253;-80
2021/06/26 02:49:20;;;;;;;;;;;14.40;99.90;;;;;;5012560;28;19921;-80
2021/06/26 02:51:45;;;;;;;;;;;14.40;99.90;;;;;;5013195;28;19912;-78
2021/06/26 03:10:10;;;;;;;;;;;14.20;99.90;;;;;;5108285;22;19921;-79
2021/06/26 04:43:35;;;;;;;;;;;15.80;99.90;;;;;;5535522;22;20365;-80
2021/06/26 04:46:01;;;;;;;;;;;17.10;99.90;;;;;;5016544;28;19909;-80
2021/06/26 04:48:29;;;;;;;;;;;17.20;99.90;;;;;;5013668;28;19967;-81
2021/06/26 04:50:56;;;;;;;;;;;17.20;99.90;;;;;;5014597;28;20394;-81
2021/06/26 04:53:21;;;;;;;;;;;18.90;99.90;;;;;;5013346;28;20061;-81
2021/06/26 04:55:53;;;;;;;10.10;6.13;;;19.30;99.90;;;;;;5014653;28;19944;-81
2021/06/26 04:58:22;;;;;;;11.52;6.70;;;18.80;99.90;;;;;;5014908;28;20100;-82
2021/06/26 05:00:51;;;;;;;8.20;6.20;;;18.90;99.90;;;;;;5014535;28;20018;-83
2021/06/26 05:03:21;;;;;;;7.60;6.07;;;18.60;99.90;;;;;;5013878;28;20022;-81
2021/06/26 05:05:49;;;;;;;9.68;7.07;;;18.20;99.90;;;;;;5013077;28;20024;-81
2021/06/26 05:08:15;;;;;;;8.57;6.60;;;17.80;99.90;;;;;;5013236;28;20018;-81
2021/06/26 05:10:41;;;;;;;11.90;7.20;;;17.50;99.90;;;;;;5013173;28;20058;-81
2021/06/26 05:13:06;;;;;;;9.63;6.43;;;17.30;99.90;;;;;;5013072;28;20544;-81
2021/06/26 05:15:32;;;;;;;13.10;7.63;;;17.30;99.90;;;;;;5013363;28;20026;-81
2021/06/26 05:17:58;;;;;;;;;;;17.20;99.90;;;;;;5014895;28;20030;-81
2021/06/26 05:20:23;;;;;;;;;;;17.20;99.90;;;;;;5014071;28;20000;-80
2021/06/26 05:22:48;;;;;;;;;;;17.20;99.90;;;;;;5012496;28;19905;-82
2021/06/26 05:25:14;;;;;;;;;;;17.10;99.90;;;;;;5012720;28;19905;-81
2021/06/26 05:27:40;;;;;;;;;;;17.10;99.90;;;;;;5012511;28;20056;-81
2021/06/26 05:30:06;;;;;;;;;;;17.10;99.90;;;;;;5012151;28;19905;-82
2021/06/26 05:32:31;;;;;;;;;;;17.30;99.90;;;;;;5011634;28;19909;-81
2021/06/26 05:34:57;;;;;;;;;;;17.50;99.90;;;;;;5012470;28;20368;-83
2021/06/26 05:37:22;;;;;;;;;;;17.80;99.90;;;;;;5014180;28;19909;-81
2021/06/26 05:39:48;;;;;;;;;;;17.80;99.90;;;;;;5012544;28;19905;-80
2021/06/26 05:42:13;;;;;;;;;;;17.80;99.90;;;;;;5012370;28;19955;-82
2021/06/26 05:44:39;;;;;;;;;;;17.80;99.90;;;;;;5012803;28;20001;-81
2021/06/26 05:47:04;;;;;;;;;;;17.80;99.90;;;;;;5012724;28;19906;-80
2021/06/26 05:49:30;;;;;;;;;;;17.90;99.90;;;;;;5014124;28;20261;-80
2021/06/26 05:51:55;;;;;;;;;;;17.90;99.90;;;;;;5013319;28;20292;-82
2021/06/26 05:54:21;;;;;;;;;;;18.00;99.90;;;;;;5011740;28;20001;-82
2021/06/26 05:56:46;;;;;;;;;;;18.10;99.90;;;;;;5012659;28;20348;-81
2021/06/26 05:59:12;;;;;;;;;;;18.20;99.90;;;;;;5012268;28;19955;-83
2021/06/26 06:01:37;;;;;;;;;;;18.30;99.90;;;;;;5012291;28;19905;-81
2021/06/26 06:04:05;;;;;;;;;;;18.40;99.90;;;;;;5011994;28;20391;-81
2021/06/26 06:06:30;;;;;;;;;;;18.40;99.90;;;;;;5012381;28;19932;-81
2021/06/26 06:08:56;;;;;;;;;;;18.50;99.90;;;;;;5011908;28;20364;-82
2021/06/26 06:11:21;;;;;;;;;;;18.40;99.90;;;;;;5012023;28;19912;-82
2021/06/26 06:13:47;;;;;;;;;;;18.50;99.90;;;;;;5011831;28;19912;-82
2021/06/26 06:16:12;;;;;;;;;;;18.80;99.90;;;;;;5013765;28;19905;-82
2021/06/26 06:18:38;;;;;;;;;;;19.10;99.90;;;;;;5012723;28;19913;-81
2021/06/26 06:21:04;;;;;;;;;;;19.70;99.90;;;;;;5012840;28;20069;-81
2021/06/26 06:23:29;;;;;;;;;;;20.00;99.90;;;;;;5012142;28;20374;-83
2021/06/26 06:25:55;;;;;;;;;;;19.90;99.90;;;;;;5012968;28;19910;-81
2021/06/26 06:28:20;;;;;;;;;;;19.90;99.90;;;;;;5012823;28;19905;-81
2021/06/26 06:30:48;;;;;;;;;;;20.90;99.90;;;;;;5012477;28;20276;-81
2021/06/26 06:33:13;;;;;;;;;;;21.50;99.90;;;;;;5012101;28;19955;-81
2021/06/26 06:35:39;;;;;;;;;;;21.80;99.90;;;;;;5012586;28;19905;-79
2021/06/26 06:38:04;;;;;;;;;;;23.10;99.90;;;;;;5013948;28;19909;-79
2021/06/26 06:40:30;;;;;;;;;;;23.70;99.90;;;;;;5013720;28;20380;-79
2021/06/26 06:42:56;;;;;;;;;;;23.20;99.90;;;;;;5012122;28;19972;-79
2021/06/26 06:45:21;;;;;;;;;;;22.50;99.90;;;;;;5012422;28;19909;-78
2021/06/26 06:47:47;;;;;;;;;;;22.00;99.90;;;;;;5012497;28;19905;-80
2021/06/26 06:50:13;;;;;;;;;;;22.10;99.90;;;;;;5012407;28;20380;-85
2021/06/26 06:52:38;;;;;;;;;;;21.90;99.90;;;;;;5012045;28;19912;-81
2021/06/26 06:55:05;;;;;;;;;;;21.30;99.90;;;;;;5012469;28;19996;-82
2021/06/26 06:57:30;;;;;;;;;;;20.60;99.90;;;;;;5012787;28;19909;-81
2021/06/26 06:59:56;;;;;;;;;;;20.70;99.90;;;;;;5011973;28;19905;-81
2021/06/26 07:02:21;;;;;;;;;;;21.50;99.90;;;;;;5011682;28;20007;-81
2021/06/26 07:04:47;;;;;;;;;;;22.60;99.90;;;;;;5010784;28;19952;-84
2021/06/26 07:07:13;;;;;;;;;;;23.10;99.90;;;;;;5013203;28;19959;-81
2021/06/26 07:09:39;;;;;;;;;;;23.20;99.90;;;;;;5013089;28;19960;-81
2021/06/26 07:12:05;;;;;;;;;;;22.90;99.90;;;;;;5011709;28;19905;-81
2021/06/26 07:14:30;;;;;;;;;;;23.50;99.90;;;;;;5011884;28;20320;-81
2021/06/26 07:16:56;;;;;;;;;;;23.50;99.90;;;;;;5012190;28;19948;-81
2021/06/26 07:19:21;;;;;;;;;;;24.00;99.90;;;;;;5011927;28;19929;-83
2021/06/26 07:21:47;;;;;;;;;;;24.80;99.90;;;;;;5012920;28;20254;-81
2021/06/26 07:24:13;;;;;;;;;;;24.60;99.90;;;;;;5011461;28;19916;-81
2021/06/26 07:26:38;;;;;;;;;;;24.30;99.90;;;;;;5011801;28;20392;-81
2021/06/26 07:29:04;;;;;;;;;;;24.00;99.90;;;;;;5011948;28;19905;-81
2021/06/26 07:31:30;;;;;;;;;;;23.80;99.90;;;;;;5012809;28;19905;-82
2021/06/26 07:33:55;;;;;;;;;;;24.10;99.90;;;;;;5011333;28;19905;-81
2021/06/26 07:36:21;;;;;;;;;;;24.40;99.90;;;;;;5011623;28;19915;-81
2021/06/26 07:38:47;;;;;;;;;;;24.50;99.90;;;;;;5011784;28;19909;-82
2021/06/26 07:41:13;;;;;;;;;;;24.80;99.90;;;;;;5011632;28;19983;-82
2021/06/26 07:43:38;;;;;;;;;;;24.60;99.90;;;;;;5011099;28;19913;-82
2021/06/26 07:46:04;;;;;;;;;;;24.40;99.90;;;;;;5012924;28;19905;-81
2021/06/26 07:48:39;;;;;;;;;;;23.80;99.90;;;;;;5011499;28;19933;-81
2021/06/26 07:51:04;;;;;;;;;;;23.70;99.90;;;;;;5011380;28;20430;-81
2021/06/26 07:53:30;;;;;;;;;;;24.20;99.90;;;;;;5011298;28;19909;-81
2021/06/26 07:55:55;;;;;;;;;;;24.70;99.90;;;;;;5012886;28;19906;-81
2021/06/26 07:58:25;;;;;;;;;;;25.00;99.90;;;;;;5011309;28;19967;-81
2021/06/26 08:00:51;;;;;;;;;;;24.80;99.90;;;;;;5011529;28;19945;-81
2021/06/26 08:03:17;;;;;;;;;;;25.10;99.90;;;;;;5011181;28;20004;-81
2021/06/26 08:05:43;;;;;;;;;;;25.60;99.90;;;;;;5011420;28;19912;-81
2021/06/26 08:08:08;;;;;;;;;;;25.20;99.90;;;;;;5011486;28;20008;-81
2021/06/26 08:10:34;;;;;;;;;;;25.30;99.90;;;;;;5011310;28;19961;-81
2021/06/26 08:12:59;;;;;;;;;;;25.90;99.90;;;;;;5010933;28;19906;-83
2021/06/26 08:15:25;;;;;;;;;;;26.10;99.90;;;;;;5012575;28;19913;-82
2021/06/26 08:17:50;;;;;;;;;;;26.20;99.90;;;;;;5015070;28;20019;-82
2021/06/26 08:20:16;;;;;;;;;;;26.40;99.90;;;;;;5015938;28;20027;-82
2021/06/26 08:22:42;;;;;;;;;;;26.60;99.90;;;;;;5015895;28;19940;-81
2021/06/26 08:25:07;;;;;;;;;;;26.60;99.90;;;;;;5014748;28;19980;-81
2021/06/26 08:27:33;;;;;;;;;;;26.30;99.90;;;;;;5014660;28;19905;-81
2021/06/26 08:29:58;;;;;;;;;;;26.50;99.90;;;;;;5014699;28;19905;-82
2021/06/26 08:32:24;;;;;;;;;;;27.20;99.90;;;;;;5014780;28;19912;-82
2021/06/26 08:34:49;;;;;;;;;;;27.00;99.90;;;;;;5014869;28;19962;-81
2021/06/26 08:37:15;;;;;;;;;;;26.40;99.90;;;;;;5014531;28;19917;-81
2021/06/26 08:39:40;;;;;;;;;;;26.20;99.90;;;;;;5014722;28;19960;-81
2021/06/26 08:42:07;;;;;;;;;;;26.60;99.90;;;;;;5014185;28;19905;-82
2021/06/26 08:44:32;;;;;;;;;;;26.40;99.90;;;;;;5014590;28;19964;-82
2021/06/26 08:46:58;;;;;;;;;;;26.20;99.90;;;;;;5016132;28;19913;-81
2021/06/26 08:49:23;;;;;;;;;;;26.40;99.90;;;;;;5014378;28;20284;-82
2021/06/26 08:51:49;;;;;;;;;;;26.10;99.90;;;;;;5014727;28;19905;-81
2021/06/26 08:54:16;;;;;;;;;;;26.10;99.90;;;;;;5014240;28;19951;-82
2021/06/26 08:56:42;;;;;;;;;;;26.70;99.90;;;;;;5013913;28;19909;-81
2021/06/26 08:59:08;;;;;;;;;;;27.10;99.90;;;;;;5014402;28;19909;-82
2021/06/26 09:01:37;;;;;;;;;;;26.90;99.90;;;;;;5013933;28;19912;-82
2021/06/26 09:04:06;;;;;;;;;;;27.00;99.90;;;;;;5015286;28;19906;-82
2021/06/26 09:06:44;;;;;;;;;;;27.50;99.90;;;;;;5014883;28;19909;-82
2021/06/26 09:09:10;;;;;;;;;;;27.90;99.90;;;;;;5014113;28;19905;-82
2021/06/26 09:11:35;;;;;;;;;;;27.90;99.90;;;;;;5013849;28;19909;-82
2021/06/26 09:14:01;;;;;;;;;;;27.70;99.90;;;;;;5013783;28;19909;-81
2021/06/26 09:16:26;;;;;;;;;;;27.30;99.90;;;;;;5013486;28;19905;-82
2021/06/26 09:18:54;;;;;;;;;;;27.00;99.90;;;;;;5013697;28;19909;-82
2021/06/26 09:24:00;;;;;;;;;;;27.40;99.90;;;;;;5015196;28;20332;-83
2021/06/26 09:26:26;;;;;;;;;;;27.40;99.90;;;;;;5014020;28;19944;-81
2021/06/26 09:28:51;;;;;;;;;;;27.80;99.90;;;;;;5012659;28;19916;-82
2021/06/26 09:31:17;;;;;;;;;;;28.00;99.90;;;;;;5015002;28;19909;-82
2021/06/26 09:33:43;;;;;;;;;;;27.60;99.90;;;;;;5013129;28;19910;-82
2021/06/26 09:36:09;;;;;;;;;;;27.80;99.90;;;;;;5015278;28;19932;-81
2021/06/26 09:38:36;;;;;;;;;;;27.90;99.90;;;;;;5013701;28;20383;-82
2021/06/26 09:41:14;;;;;;;;;;;28.10;99.90;;;;;;5013334;28;19916;-81
2021/06/26 09:43:40;;;;;;;;;;;27.60;99.90;;;;;;5012647;28;19913;-82
2021/06/26 09:46:06;;;;;;;;;;;27.70;99.90;;;;;;5013482;28;19917;-82
2021/06/26 09:48:31;;;;;;;;;;;27.40;99.90;;;;;;5013417;28;19925;-82
2021/06/26 09:50:56;;;;;;;;;;;27.00;99.90;;;;;;5013534;28;20000;-82
2021/06/26 09:53:22;;;;;;;;;;;26.90;99.90;;;;;;5012828;28;20379;-82
2021/06/26 09:55:53;;;;;;;;;;;26.80;99.90;;;;;;5014325;28;19937;-81
2021/06/26 09:58:19;;;;;;;;;;;26.50;99.90;;;;;;5013170;28;19916;-82
2021/06/26 10:00:45;;;;;;;;;;;25.60;99.90;;;;;;5013129;28;19905;-82
2021/06/26 10:03:11;;;;;;;;;;;25.60;99.90;;;;;;5012691;28;20471;-82
2021/06/26 10:05:42;;;;;;;;;;;25.50;99.90;;;;;;5012945;28;19906;-82
2021/06/26 10:08:08;;;;;;;;;;;25.20;99.90;;;;;;5012971;28;19905;-82
2021/06/26 10:10:33;;;;;;;;;;;25.10;99.90;;;;;;5012666;28;19932;-82
2021/06/26 10:12:59;;;;;;;;;;;25.40;99.90;;;;;;5013510;28;19910;-82
2021/06/26 10:15:26;;;;;;;;;;;25.70;99.90;;;;;;5012995;28;19992;-82
2021/06/26 10:17:51;;;;;;;;;;;25.40;99.90;;;;;;5012560;28;19913;-82
2021/06/26 10:20:18;;;;;;;;;;;25.60;99.90;;;;;;5012637;28;20375;-82
2021/06/26 10:22:47;;;;;;;;;;;25.70;99.90;;;;;;5012202;28;19945;-82
2021/06/26 10:25:12;;;;;;;;;;;25.90;99.90;;;;;;5012336;28;19960;-82
2021/06/26 10:27:38;;;;;;;;;;;26.20;99.90;;;;;;5012530;28;19909;-82
2021/06/26 10:30:10;;;;;;;;;;;26.30;99.90;;;;;;5012727;28;19905;-82
2021/06/26 10:32:35;;;;;;;;;;;26.00;99.90;;;;;;5012049;28;19906;-82
2021/06/26 10:35:10;;;;;;;;;;;26.10;99.90;;;;;;5013451;28;19916;-84
2021/06/26 10:37:35;;;;;;;;;;;26.30;99.90;;;;;;5013598;28;19909;-82
2021/06/26 10:40:03;;;;;;;;;;;26.50;99.90;;;;;;5013471;28;19941;-82
2021/06/26 10:42:33;;;;;;;;;;;26.50;99.90;;;;;;5011864;28;19912;-83
2021/06/26 10:45:00;;;;;;;;;;;26.40;99.90;;;;;;5013957;28;20012;-82
2021/06/26 10:47:37;;;;;;;;;;;26.50;99.90;;;;;;5012157;28;19905;-82
2021/06/26 10:50:09;;;;;;;;;;;26.50;99.90;;;;;;5013354;28;19905;-82
2021/06/26 10:52:34;;;;;;;;;;;26.40;99.90;;;;;;5011924;28;19905;-82
2021/06/26 10:54:59;;;;;;;;;;;26.70;99.90;;;;;;5012262;28;20008;-82
2021/06/26 10:57:26;;;;;;;;;;;26.90;99.90;;;;;;5011944;28;19913;-82
2021/06/26 11:00:01;;;;;;;;;;;26.70;99.90;;;;;;5012057;28;20024;-82
2021/06/26 11:02:40;;;;;;;;;;;27.30;99.90;;;;;;5013050;28;19906;-82
2021/06/26 11:05:06;;;;;;;;;;;27.90;99.90;;;;;;5012001;28;20380;-82
2021/06/26 11:07:33;;;;;;;;;;;28.00;99.90;;;;;;5011923;28;20364;-82
2021/06/26 11:10:04;;;;;;;;;;;28.30;99.90;;;;;;5013299;28;19906;-82
2021/06/26 11:12:36;;;;;;;;;;;27.90;99.90;;;;;;5011971;28;20272;-82
2021/06/26 11:15:02;;;;;;;;;;;28.40;99.90;;;;;;5011870;28;19916;-82
2021/06/26 11:17:35;;;;;;;;;;;28.90;99.90;;;;;;5011363;28;19917;-82
2021/06/26 11:20:00;;;;;;;;;;;28.80;99.90;;;;;;5011876;28;19948;-82
2021/06/26 11:22:26;;;;;;;;;;;28.30;99.40;;;;;;5011228;28;19905;-82
2021/06/26 11:24:51;;;;;;;;;;;27.80;99.10;;;;;;5011769;28;19910;-82
2021/06/26 11:27:18;;;;;;;;;;;27.50;99.30;;;;;;5011689;28;19956;-82
2021/06/26 11:29:45;;;;;;;;;;;27.70;99.90;;;;;;5012903;28;19905;-82
2021/06/26 11:32:19;;;;;;;;;;;27.70;99.90;;;;;;5012824;28;20420;-82
2021/06/26 11:34:55;;;;;;;;;;;27.10;99.90;;;;;;5011642;28;19944;-82
2021/06/26 11:37:21;;;;;;;;;;;27.30;99.90;;;;;;5011540;28;20331;-82
2021/06/26 11:39:46;;;;;;;;;;;26.90;99.90;;;;;;5011728;28;19967;-83
2021/06/26 11:42:16;;;;;;;;;;;26.80;99.90;;;;;;5011200;28;20411;-82
2021/06/26 11:44:42;;;;;;;;;;;27.30;99.90;;;;;;5013169;28;20272;-83
2021/06/26 11:47:08;;;;;;;;;;;27.10;99.90;;;;;;5013088;28;19912;-82
2021/06/26 11:49:38;;;;;;;;;;;27.30;99.90;;;;;;5011786;28;19952;-82
2021/06/26 11:52:05;;;;;;;;;;;27.30;99.90;;;;;;5014281;28;19956;-82
2021/06/26 11:54:30;;;;;;;;;;;26.60;99.90;;;;;;5016856;28;19951;-82
2021/06/26 11:56:56;;;;;;;;;;;26.40;99.90;;;;;;5014982;28;19909;-82
2021/06/26 11:59:22;;;;;;;;;;;26.40;99.90;;;;;;5015232;28;20382;-82
2021/06/26 12:01:49;;;;;;;;;;;26.90;99.90;;;;;;5016583;28;19948;-82
2021/06/26 12:04:24;;;;;;;;;;;27.80;99.90;;;;;;5015267;28;20364;-81
2021/06/26 12:06:50;;;;;;;;;;;28.20;99.90;;;;;;5015534;28;19952;-82
2021/06/26 12:09:19;;;;;;;;;;;28.60;99.90;;;;;;5015327;28;19909;-83
2021/06/26 12:11:45;;;;;;;;;;;28.60;99.40;;;;;;5015054;28;19909;-82
2021/06/26 12:14:10;;;;;;;;;;;27.80;99.90;;;;;;5014772;28;20368;-82
2021/06/26 12:16:39;;;;;;;;;;;28.10;99.90;;;;;;5015253;28;19905;-82
2021/06/26 12:19:08;;;;;;;;;;;28.50;99.90;;;;;;5016243;28;19933;-82
2021/06/26 12:21:39;;;;;;;;;;;28.60;99.90;;;;;;5014649;28;19905;-84
2021/06/26 12:24:06;;;;;;;;;;;28.10;99.90;;;;;;5014965;28;19905;-82
2021/06/26 12:26:31;;;;;;;;;;;28.00;99.90;;;;;;5015124;28;19932;-82
2021/06/26 12:29:22;;;;;;;;;;;28.20;99.90;;;;;;5015078;28;20378;-83
2021/06/26 12:32:07;;;;;;;;;;;27.90;99.90;;;;;;5013972;28;19912;-82
2021/06/26 12:34:43;;;;;;;;;;;27.60;99.90;;;;;;5014562;28;19906;-83
2021/06/26 12:37:08;;;;;;;;;;;27.40;99.70;;;;;;5014389;28;20379;-82
2021/06/26 12:39:35;;;;;;;;;;;28.00;99.90;;;;;;5016049;28;19906;-82
2021/06/26 12:42:01;;;;;;;;;;;28.10;98.70;;;;;;5014425;28;19912;-83
2021/06/26 12:44:28;;;;;;;;;;;28.00;99.90;;;;;;5014512;28;19986;-82
2021/06/26 12:46:53;;;;;;;;;;;27.30;99.90;;;;;;5014281;28;19960;-82
2021/06/26 12:49:23;;;;;;;;;;;26.80;99.90;;;;;;5014647;28;20324;-82
2021/06/26 12:51:50;;;;;;;;;;;26.70;99.90;;;;;;5014240;28;19905;-83
2021/06/26 12:54:16;;;;;;;;;;;26.90;99.60;;;;;;5014498;28;19905;-82
2021/06/26 12:56:47;;;;;;;;;;;27.40;99.90;;;;;;5014131;28;19932;-82
2021/06/26 12:59:13;;;;;;;;;;;28.20;99.90;;;;;;5014406;28;19936;-82
2021/06/26 13:01:41;;;;;;;;;;;28.90;99.90;;;;;;5013537;28;19910;-83
2021/06/26 13:04:10;;;;;;;;;;;29.10;99.70;;;;;;5013284;28;19941;-82
2021/06/26 13:06:56;;;;;;;;;;;28.80;98.70;;;;;;5014299;28;19913;-82
2021/06/26 13:09:30;;;;;;;;;;;28.40;99.30;;;;;;5015509;28;20299;-83
2021/06/26 13:12:06;;;;;;;;;;;28.00;99.80;;;;;;5013474;28;20328;-82
2021/06/26 13:14:33;;;;;;;;;;;27.60;98.70;;;;;;5013712;28;19911;-82
2021/06/26 13:16:58;;;;;;;;;;;27.60;99.90;;;;;;5014047;28;19905;-82
2021/06/26 13:19:23;;;;;;;;;;;27.70;99.10;;;;;;5014028;28;20000;-82
2021/06/26 13:21:50;;;;;;;;;;;27.90;99.90;;;;;;5013766;28;19912;-82
2021/06/26 13:24:16;;;;;;;;;;;28.30;97.40;;;;;;5015418;28;19905;-83
2021/06/26 13:26:41;;;;;;;;;;;28.50;99.20;;;;;;5013581;28;20012;-82
2021/06/26 13:29:07;;;;;;;;;;;27.90;99.90;;;;;;5013806;28;19912;-82
2021/06/26 13:31:32;;;;;;;;;;;27.60;99.10;;;;;;5014888;28;19906;-82
2021/06/26 13:33:58;;;;;;;;;;;27.80;99.90;;;;;;5013353;28;19999;-82
2021/06/26 13:36:23;;;;;;;;;;;28.10;99.90;;;;;;5013760;28;19909;-82
2021/06/26 13:38:49;;;;;;;;;;;27.80;97.40;;;;;;5013583;28;20272;-82
2021/06/26 13:41:14;;;;;;;;;;;27.30;98.60;;;;;;5013725;28;19931;-82
2021/06/26 13:43:40;;;;;;;;;;;26.90;98.30;;;;;;5012999;28;19913;-83
2021/06/26 13:46:05;;;;;;;;;;;26.70;98.10;;;;;;5014707;28;19912;-82
2021/06/26 13:48:31;;;;;;;;;;;26.70;98.60;;;;;;5013421;28;19913;-82
2021/06/26 13:50:56;;;;;;;;;;;27.00;97.80;;;;;;5013354;28;19906;-82
2021/06/26 13:53:22;;;;;;;;;;;27.40;99.90;;;;;;5013052;28;19909;-83
2021/06/26 13:55:50;;;;;;;;;;;28.20;99.90;;;;;;5013150;28;20368;-83
2021/06/26 13:58:17;;;;;;;;;;;28.20;97.60;;;;;;5014489;28;19910;-82
2021/06/26 14:00:42;;;;;;;;;;;28.00;97.60;;;;;;5013112;28;19952;-82
2021/06/26 14:03:08;;;;;;;;;;;28.00;96.50;;;;;;5012883;28;20450;-81
2021/06/26 14:05:33;;;;;;;;;;;28.00;99.00;;;;;;5012829;28;19909;-82
2021/06/26 14:07:59;;;;;;;;;;;27.60;98.00;;;;;;5013107;28;19906;-83
2021/06/26 14:10:24;;;;;;;;;;;27.50;99.20;;;;;;5012792;28;20372;-82
2021/06/26 14:12:50;;;;;;;;;;;27.80;97.60;;;;;;5012751;28;19906;-82
2021/06/26 14:15:15;;;;;;;;;;;28.40;99.90;;;;;;5012163;28;19905;-82
2021/06/26 14:17:41;;;;;;;;;;;28.50;98.60;;;;;;5012640;28;19913;-82
2021/06/26 14:20:07;;;;;;;;;;;28.10;97.80;;;;;;5014137;28;19913;-82
2021/06/26 14:22:32;;;;;;;;;;;27.60;96.20;;;;;;5013840;28;19912;-82
2021/06/26 14:24:58;;;;;;;;;;;27.30;97.50;;;;;;5014095;28;19912;-82
2021/06/26 14:27:23;;;;;;;;;;;26.90;98.70;;;;;;5013964;28;19913;-82
2021/06/26 14:29:49;;;;;;;;;;;27.10;99.90;;;;;;5013770;28;19905;-82
2021/06/26 14:32:14;;;;;;;;;;;27.10;97.90;;;;;;5012426;28;19996;-82
2021/06/26 14:34:40;;;;;;;;;;;27.30;97.20;;;;;;5012212;28;19912;-83
2021/06/26 14:37:05;;;;;;;;;;;27.30;98.50;;;;;;5013804;28;19913;-82
2021/06/26 14:39:31;;;;;;;;;;;27.20;97.00;;;;;;5012390;28;19917;-82
2021/06/26 14:41:56;;;;;;;;;;;27.50;99.10;;;;;;5012158;28;20321;-82
2021/06/26 14:44:22;;;;;;;;;;;27.90;98.20;;;;;;5012181;28;19983;-82
2021/06/26 14:46:47;;;;;;;;;;;28.20;98.10;;;;;;5013678;28;19912;-83
2021/06/26 14:49:13;;;;;;;;;;;27.80;95.80;;;;;;5013762;28;19905;-82
2021/06/26 14:51:38;;;;;;;;;;;27.30;96.60;;;;;;5012746;28;20303;-82
2021/06/26 14:54:04;;;;;;;;;;;27.00;99.10;;;;;;5013267;28;19932;-82
2021/06/26 14:56:29;;;;;;;;;;;26.90;99.70;;;;;;5013557;28;20299;-82
2021/06/26 14:58:55;;;;;;;;;;;26.80;99.20;;;;;;5012627;28;19932;-83
2021/06/26 15:01:21;;;;;;;;;;;26.90;98.30;;;;;;5012973;28;19905;-82
2021/06/26 15:03:46;;;;;;;;;;;27.20;99.00;;;;;;5013947;28;19959;-82
2021/06/26 15:06:12;;;;;;;;;;;27.20;97.40;;;;;;5013197;28;19916;-82
2021/06/26 15:08:38;;;;;;;;;;;27.10;98.20;;;;;;5014446;28;19905;-82
2021/06/26 15:11:03;;;;;;;;;;;26.90;99.50;;;;;;5013093;28;19912;-82
2021/06/26 15:13:29;;;;;;;;;;;27.00;98.70;;;;;;5012428;28;19905;-83
2021/06/26 15:15:56;;;;;;;;;;;27.00;99.90;;;;;;5014924;28;19949;-83
2021/06/26 15:18:22;;;;;;;;;;;27.50;98.50;;;;;;5012742;28;19937;-82
2021/06/26 15:20:47;;;;;;;;;;;27.40;99.10;;;;;;5012432;28;20372;-82
2021/06/26 15:23:13;;;;;;;;;;;27.40;98.70;;;;;;5012495;28;20326;-82
2021/06/26 15:25:38;;;;;;;;;;;27.10;97.60;;;;;;5012096;28;19913;-82
2021/06/26 15:28:04;;;;;;;;;;;26.90;98.40;;;;;;5014483;28;19912;-83
2021/06/26 15:30:29;;;;;;;;;;;26.50;99.10;;;;;;5012071;28;19929;-82
2021/06/26 15:32:55;;;;;;;;;;;26.20;98.90;;;;;;5011566;28;20000;-81
2021/06/26 15:35:20;;;;;;;;;;;26.00;99.50;;;;;;5013776;28;19912;-82
2021/06/26 15:37:46;;;;;;;;;;;25.90;98.40;;;;;;5012362;28;19932;-83
2021/06/26 15:40:12;;;;;;;;;;;26.00;99.20;;;;;;5012211;28;19909;-82
2021/06/26 15:42:37;;;;;;;;;;;26.10;99.50;;;;;;5011731;28;19905;-81
2021/06/26 15:45:03;;;;;;;;;;;26.10;99.60;;;;;;5012709;28;19910;-83
2021/06/26 15:47:29;;;;;;;;;;;26.10;99.90;;;;;;5012250;28;19905;-82
2021/06/26 15:49:54;;;;;;;;;;;26.10;99.40;;;;;;5014125;28;19960;-81
2021/06/26 15:52:20;;;;;;;;;;;26.00;99.20;;;;;;5011941;28;19996;-82
2021/06/26 15:54:45;;;;;;;;;;;26.60;99.70;;;;;;5012128;28;19949;-82
2021/06/26 15:57:11;;;;;;;;;;;26.80;97.70;;;;;;5013584;28;19916;-83
2021/06/26 15:59:37;;;;;;;;;;;26.60;98.60;;;;;;5012145;28;19955;-82